Time;durP1;ratioP1;P1;durP2;ratioP2;P2;SDS_P1;SDS_P2;PMS_P1;PMS_P2;Temp;Humidity;BMP_temperature;BMP_pressure;BME280_temperature;BME280_humidity;BME280_pressure;Samples;Min_cycle;Max_cycle;Signal;HPM_P1;HPM_P2
2021/12/13 00:00:45;;;;;;;;;9.00;9.00;;;;;;;;5211823;28;8822;-67
2021/12/13 00:03:26;;;;;;;;;13.25;10.50;;;;;;;;5230086;28;9509;-67
2021/12/13 00:06:06;;;;;;;;;10.00;10.00;;;;;;;;5212258;28;8798;-67
2021/12/13 00:08:58;;;;;;;;;7.00;7.00;;;;;;;;5229550;28;8759;-67
2021/12/13 00:11:34;;;;;;;;;12.75;11.50;;;;;;;;5195071;28;8781;-67
2021/12/13 00:14:17;;;;;;;;;9.50;9.50;;;;;;;;5212090;28;8787;-67
2021/12/13 00:16:50;;;;;;;;;12.75;12.75;;;;;;;;5211621;28;8781;-67
2021/12/13 00:19:24;;;;;;;;;12.50;12.50;;;;;;;;5210956;28;8787;-67
2021/12/13 00:22:07;;;;;;;;;7.50;7.25;;;;;;;;5194911;28;8907;-67
2021/12/13 00:24:40;;;;;;;;;9.00;9.00;;;;;;;;5211453;28;9479;-68
2021/12/13 00:27:13;;;;;;;;;6.50;6.00;;;;;;;;5211108;28;8791;-68
2021/12/13 00:29:49;;;;;;;;;16.00;15.75;;;;;;;;5228652;28;9486;-68
2021/12/13 00:32:41;;;;;;;;;13.50;13.25;;;;;;;;5228966;28;9526;-68
2021/12/13 00:35:14;;;;;;;;;10.00;10.00;;;;;;;;5228947;28;8876;-68
2021/12/13 00:37:49;;;;;;;;;14.50;14.50;;;;;;;;5228880;28;8783;-68
2021/12/13 00:40:22;;;;;;;;;10.50;10.50;;;;;;;;5228252;28;8771;-68
2021/12/13 00:42:56;;;;;;;;;9.50;9.25;;;;;;;;5194948;28;8799;-68
2021/12/13 00:45:29;;;;;;;;;8.75;7.50;;;;;;;;5195047;28;9490;-68
2021/12/13 00:48:02;;;;;;;;;12.00;10.50;;;;;;;;5210682;28;8791;-68
2021/12/13 00:50:36;;;;;;;;;10.75;10.75;;;;;;;;5228602;28;9471;-67
2021/12/13 00:53:07;;;;;;;;;13.00;12.50;;;;;;;;5210723;28;8803;-67
2021/12/13 00:55:38;;;;;;;;;28.75;27.75;;;;;;;;5210795;28;8803;-67
2021/12/13 00:58:11;;;;;;;;;24.25;24.25;;;;;;;;5228590;28;8801;-67
2021/12/13 01:00:45;;;;;;;;;30.00;28.00;;;;;;;;5228558;28;9579;-67
2021/12/13 01:03:19;;;;;;;;;15.75;15.75;;;;;;;;5211106;28;8862;-68
2021/12/13 01:05:57;;;;;;;;;13.75;13.75;;;;;;;;5228555;28;8783;-67
2021/12/13 01:08:46;;;;;;;;;15.25;14.75;;;;;;;;5228509;28;8775;-68
2021/12/13 01:11:32;;;;;;;;;12.00;12.00;;;;;;;;5228269;28;8818;-68
2021/12/13 01:14:11;;;;;;;;;23.50;20.25;;;;;;;;5228472;28;8779;-67
2021/12/13 01:17:13;;;;;;;;;19.50;17.50;;;;;;;;5228981;28;8925;-67
2021/12/13 01:19:54;;;;;;;;;21.75;21.50;;;;;;;;5210425;28;8839;-66
2021/12/13 01:23:04;;;;;;;;;22.33;21.33;;;;;;;;5210007;28;8853;-66
2021/12/13 01:28:28;;;;;;;;;8.00;6.75;;;;;;;;5228482;28;8857;-66
2021/12/13 01:31:02;;;;;;;;;16.00;16.00;;;;;;;;5228075;28;8799;-67
2021/12/13 01:33:34;;;;;;;;;16.00;16.00;;;;;;;;5193671;28;8787;-66
2021/12/13 01:36:07;;;;;;;;;27.75;26.75;;;;;;;;5177003;28;8814;-65
2021/12/13 01:38:45;;;;;;;;;16.75;16.75;;;;;;;;5209955;28;9470;-66
2021/12/13 01:41:22;;;;;;;;;21.50;19.00;;;;;;;;5210357;28;8858;-65
2021/12/13 01:43:56;;;;;;;;;20.25;19.50;;;;;;;;5228169;28;8809;-66
2021/12/13 01:46:27;;;;;;;;;15.75;15.50;;;;;;;;5209758;28;8807;-66
2021/12/13 01:48:58;;;;;;;;;12.00;12.00;;;;;;;;5227776;28;8791;-66
2021/12/13 01:51:33;;;;;;;;;4.67;4.67;;;;;;;;5209527;28;8879;-65
2021/12/13 01:54:07;;;;;;;;;17.50;17.50;;;;;;;;5209835;28;11436;-65
2021/12/13 01:56:54;;;;;;;;;22.00;21.75;;;;;;;;5209539;28;8802;-65
2021/12/13 02:02:19;;;;;;;;;13.50;13.50;;;;;;;;5226535;28;8842;-67
2021/12/13 02:05:06;;;;;;;;;5.25;3.75;;;;;;;;5227211;28;8775;-68
2021/12/13 02:07:44;;;;;;;;;6.25;6.25;;;;;;;;5227290;28;8822;-67
2021/12/13 02:10:34;;;;;;;;;8.25;7.50;;;;;;;;5193533;28;9568;-67
2021/12/13 02:13:10;;;;;;;;;13.00;13.00;;;;;;;;5227520;28;8790;-67
2021/12/13 02:18:34;;;;;;;;;11.50;11.50;;;;;;;;5227103;28;8798;-67
2021/12/13 02:21:22;;;;;;;;;9.75;9.75;;;;;;;;5208102;28;8842;-68
2021/12/13 02:23:56;;;;;;;;;12.00;11.50;;;;;;;;5226843;28;8778;-68
2021/12/13 02:26:29;;;;;;;;;13.50;13.50;;;;;;;;5227031;28;8815;-67
2021/12/13 02:29:06;;;;;;;;;23.50;22.00;;;;;;;;5176010;28;8835;-67
2021/12/13 02:31:40;;;;;;;;;16.75;15.00;;;;;;;;5226580;28;8838;-66
2021/12/13 02:34:13;;;;;;;;;13.00;13.00;;;;;;;;5208782;28;8795;-66
2021/12/13 02:36:50;;;;;;;;;12.25;12.25;;;;;;;;5226378;28;8787;-67
2021/12/13 02:39:27;;;;;;;;;11.00;11.00;;;;;;;;5192798;28;8798;-67
2021/12/13 02:41:59;;;;;;;;;12.00;12.00;;;;;;;;5192250;28;8953;-65
2021/12/13 02:44:42;;;;;;;;;22.75;21.50;;;;;;;;5226878;28;8795;-66
2021/12/13 02:47:22;;;;;;;;;18.75;15.75;;;;;;;;5192276;28;8775;-66
2021/12/13 02:49:54;;;;;;;;;16.50;15.50;;;;;;;;5209207;28;8767;-66
2021/12/13 02:52:26;;;;;;;;;18.25;17.00;;;;;;;;5226055;28;8790;-66
2021/12/13 02:55:04;;;;;;;;;19.00;19.00;;;;;;;;5208411;28;8806;-66
2021/12/13 02:57:37;;;;;;;;;18.25;18.25;;;;;;;;5226039;28;9501;-66
2021/12/13 03:00:18;;;;;;;;;17.00;15.50;;;;;;;;5208148;28;8783;-66
2021/12/13 03:02:51;;;;;;;;;25.00;25.00;;;;;;;;5225994;28;8837;-68
2021/12/13 03:05:26;;;;;;;;;0.75;0.00;;;;;;;;5208274;28;8814;-68
2021/12/13 03:08:00;;;;;;;;;21.00;21.00;;;;;;;;5208097;28;8810;-68
2021/12/13 03:10:34;;;;;;;;;18.75;18.75;;;;;;;;5175483;28;8775;-67
2021/12/13 03:13:06;;;;;;;;;16.00;16.00;;;;;;;;5226005;28;8815;-68
2021/12/13 03:16:01;;;;;;;;;4.00;4.00;;;;;;;;5211020;28;9487;-68
2021/12/13 03:18:55;;;;;;;;;16.25;16.25;;;;;;;;5226334;28;8802;-68
2021/12/13 03:21:46;;;;;;;;;13.00;13.00;;;;;;;;5192006;28;8969;-68
2021/12/13 03:24:23;;;;;;;;;15.75;15.50;;;;;;;;5191717;28;8771;-69
2021/12/13 03:27:02;;;;;;;;;14.75;14.75;;;;;;;;5191878;28;8924;-69
2021/12/13 03:29:55;;;;;;;;;16.75;15.50;;;;;;;;5195075;28;8821;-69
2021/12/13 03:32:37;;;;;;;;;16.50;16.00;;;;;;;;5225169;28;8805;-69
2021/12/13 03:35:17;;;;;;;;;26.75;26.25;;;;;;;;5207995;28;8807;-69
2021/12/13 03:37:55;;;;;;;;;18.75;15.00;;;;;;;;5192063;28;8849;-68
2021/12/13 03:40:26;;;;;;;;;24.00;22.00;;;;;;;;5191800;28;9501;-69
2021/12/13 03:42:59;;;;;;;;;20.50;20.50;;;;;;;;5225438;28;8907;-68
2021/12/13 03:45:34;;;;;;;;;16.75;14.50;;;;;;;;5191627;28;9542;-68
2021/12/13 03:48:26;;;;;;;;;20.00;18.75;;;;;;;;5210497;28;8803;-68
2021/12/13 03:50:59;;;;;;;;;15.00;15.00;;;;;;;;5225326;28;8795;-68
2021/12/13 03:53:31;;;;;;;;;26.00;25.50;;;;;;;;5225584;28;8803;-68
2021/12/13 03:56:23;;;;;;;;;30.25;29.50;;;;;;;;5210413;28;8779;-67
2021/12/13 03:59:08;;;;;;;;;32.00;28.50;;;;;;;;5191041;28;8841;-69
2021/12/13 04:01:41;;;;;;;;;21.00;19.75;;;;;;;;5191250;28;8949;-67
2021/12/13 04:04:16;;;;;;;;;10.50;10.50;;;;;;;;5207918;28;8793;-65
2021/12/13 04:06:52;;;;;;;;;10.50;10.50;;;;;;;;5225367;28;8771;-65
2021/12/13 04:09:24;;;;;;;;;18.50;17.00;;;;;;;;5225570;28;9462;-65
2021/12/13 04:11:58;;;;;;;;;18.00;18.00;;;;;;;;5191153;28;8810;-65
2021/12/13 04:14:34;;;;;;;;;64.00;55.33;;;;;;;;5207243;28;8794;-67
2021/12/13 04:17:20;;;;;;;;;72.00;58.75;;;;;;;;5191042;28;9684;-68
2021/12/13 04:19:51;;;;;;;;;53.67;48.67;;;;;;;;5190844;28;10199;-68
2021/12/13 04:27:00;;;;;;;;;14.00;14.00;;;;;;;;5223905;28;8929;-68
2021/12/13 04:29:35;;;;;;;;;6.75;6.25;;;;;;;;5206811;28;8809;-68
2021/12/13 04:36:31;;;;;;;;;33.00;31.25;;;;;;;;5224819;28;8735;-69
2021/12/13 04:39:08;;;;;;;;;39.33;39.33;;;;;;;;5173810;28;8775;-67
2021/12/13 04:41:39;;;;;;;;;27.50;25.00;;;;;;;;5190522;28;9159;-68
2021/12/13 04:44:16;;;;;;;;;24.67;24.33;;;;;;;;5224937;28;8779;-68
2021/12/13 04:46:50;;;;;;;;;17.75;17.75;;;;;;;;5228298;28;8821;-68
2021/12/13 04:49:24;;;;;;;;;21.25;21.25;;;;;;;;5210680;28;8798;-68
2021/12/13 04:51:59;;;;;;;;;21.00;18.50;;;;;;;;5210872;28;9553;-67
2021/12/13 04:54:31;;;;;;;;;34.25;34.00;;;;;;;;5228538;28;8802;-68
2021/12/13 04:57:03;;;;;;;;;88.25;65.25;;;;;;;;5210566;28;8794;-69
2021/12/13 04:59:34;;;;;;;;;67.50;49.50;;;;;;;;5210464;28;10010;-68
2021/12/13 05:02:08;;;;;;;;;90.75;68.50;;;;;;;;5227955;28;11629;-67
2021/12/13 05:04:39;;;;;;;;;34.33;33.67;;;;;;;;5228117;28;10639;-68
2021/12/13 05:07:30;;;;;;;;;32.50;28.75;;;;;;;;5228434;28;9896;-67
2021/12/13 05:10:23;;;;;;;;;29.50;29.50;;;;;;;;5197096;28;8747;-68
2021/12/13 05:13:23;;;;;;;;;28.75;27.50;;;;;;;;5210985;28;9504;-66
2021/12/13 05:15:59;;;;;;;;;26.50;26.50;;;;;;;;5218902;28;8805;-66
2021/12/13 05:18:33;;;;;;;;;14.00;12.00;;;;;;;;5210262;28;8814;-70
2021/12/13 05:21:08;;;;;;;;;27.00;25.33;;;;;;;;5210047;28;9545;-67
2021/12/13 05:28:07;;;;;;;;;58.00;47.50;;;;;;;;5227215;28;9276;-67
2021/12/13 05:35:22;;;;;;;;;32.00;31.00;;;;;;;;5227543;28;9463;-70
2021/12/13 05:37:54;;;;;;;;;38.75;38.50;;;;;;;;5202424;28;8872;-70
2021/12/13 05:40:34;;;;;;;;;32.33;30.67;;;;;;;;5227417;28;8801;-69
2021/12/13 05:43:28;;;;;;;;;56.33;48.33;;;;;;;;5227409;28;9049;-71
2021/12/13 05:46:01;;;;;;;;;80.00;60.50;;;;;;;;5203823;28;9512;-69
2021/12/13 05:48:56;;;;;;;;;67.00;56.50;;;;;;;;5208913;28;10273;-68
2021/12/13 05:51:39;;;;;;;;;39.67;36.33;;;;;;;;5192588;28;10230;-68
2021/12/13 05:54:12;;;;;;;;;54.67;47.33;;;;;;;;5226618;28;10259;-67
2021/12/13 05:57:05;;;;;;;;;31.50;31.50;;;;;;;;5208657;28;9166;-68
2021/12/13 06:04:12;;;;;;;;;35.00;33.75;;;;;;;;5226604;28;9550;-70
2021/12/13 06:06:50;;;;;;;;;37.33;35.67;;;;;;;;5237546;28;8796;-69
2021/12/13 06:09:39;;;;;;;;;38.75;37.75;;;;;;;;5213145;28;8950;-69
2021/12/13 06:12:13;;;;;;;;;40.33;36.67;;;;;;;;5246439;28;8853;-69
2021/12/13 06:14:44;;;;;;;;;77.75;60.75;;;;;;;;5246842;28;8976;-71
2021/12/13 06:21:39;;;;;;;;;48.33;45.00;;;;;;;;5246767;28;11327;-68
2021/12/13 06:24:10;;;;;;;;;53.00;46.00;;;;;;;;5228455;28;9962;-68
2021/12/13 06:26:42;;;;;;;;;36.50;31.00;;;;;;;;5247412;28;9037;-68
2021/12/13 06:29:13;;;;;;;;;42.25;36.25;;;;;;;;5229410;28;8813;-68
2021/12/13 06:31:45;;;;;;;;;38.00;33.75;;;;;;;;5228569;28;9514;-68
2021/12/13 06:39:03;;;;;;;;;27.50;26.25;;;;;;;;5225175;28;8759;-68
2021/12/13 06:41:38;;;;;;;;;39.50;38.75;;;;;;;;5178682;28;8822;-69
2021/12/13 06:44:09;;;;;;;;;65.75;52.00;;;;;;;;5226050;28;8787;-69
2021/12/13 06:46:40;;;;;;;;;82.00;67.33;;;;;;;;5208115;28;8787;-69
2021/12/13 06:49:29;;;;;;;;;65.67;51.00;;;;;;;;5226430;28;9578;-69
2021/12/13 06:56:26;;;;;;;;;30.75;29.75;;;;;;;;5225989;28;8739;-68
2021/12/13 06:58:59;;;;;;;;;26.75;26.75;;;;;;;;5226397;28;8787;-68
2021/12/13 07:01:32;;;;;;;;;25.25;25.25;;;;;;;;5207941;28;8831;-67
2021/12/13 07:04:05;;;;;;;;;33.25;33.25;;;;;;;;5208186;28;8921;-68
2021/12/13 07:06:37;;;;;;;;;31.50;29.50;;;;;;;;5191641;28;8802;-69
2021/12/13 07:09:11;;;;;;;;;21.75;20.00;;;;;;;;5207562;28;9600;-69
2021/12/13 07:12:02;;;;;;;;;25.00;24.25;;;;;;;;5225557;28;8787;-68
2021/12/13 07:14:52;;;;;;;;;25.75;25.50;;;;;;;;5211055;28;8868;-69
2021/12/13 07:22:02;;;;;;;;;24.50;23.50;;;;;;;;5224895;28;8826;-67
2021/12/13 07:24:40;;;;;;;;;23.50;22.25;;;;;;;;5208014;28;8795;-68
2021/12/13 07:27:15;;;;;;;;;29.50;29.50;;;;;;;;5191201;28;8965;-68
2021/12/13 07:29:49;;;;;;;;;40.75;38.25;;;;;;;;5190617;28;8819;-68
2021/12/13 07:36:52;;;;;;;;;35.00;33.50;;;;;;;;5224654;28;9438;-68
2021/12/13 07:39:25;;;;;;;;;26.25;26.25;;;;;;;;5206984;28;8802;-68
2021/12/13 07:41:59;;;;;;;;;28.75;28.00;;;;;;;;5207328;28;8861;-72
2021/12/13 07:44:31;;;;;;;;;101.00;74.67;;;;;;;;5207145;28;8913;-71
2021/12/13 07:47:05;;;;;;;;;38.75;38.00;;;;;;;;5207401;28;10183;-69
2021/12/13 07:49:38;;;;;;;;;6.00;4.00;;;;;;;;5191160;28;8779;-68
2021/12/13 07:52:21;;;;;;;;;32.50;29.50;;;;;;;;5190759;28;8807;-67
2021/12/13 07:54:54;;;;;;;;;27.50;27.50;;;;;;;;5225103;28;8775;-68
2021/12/13 07:57:30;;;;;;;;;30.75;30.00;;;;;;;;5225003;28;8896;-69
2021/12/13 08:00:10;;;;;;;;;71.75;57.25;;;;;;;;5206991;28;8794;-68
2021/12/13 08:03:01;;;;;;;;;95.00;67.33;;;;;;;;5219813;28;8849;-69
2021/12/13 08:05:38;;;;;;;;;78.67;63.00;;;;;;;;5226225;28;9464;-68
2021/12/13 08:12:39;;;;;;;;;38.25;34.50;;;;;;;;5225259;28;8743;-67
2021/12/13 08:15:13;;;;;;;;;30.50;30.50;;;;;;;;5191335;28;8859;-69
2021/12/13 08:17:46;;;;;;;;;33.75;32.00;;;;;;;;5190099;28;9575;-69
2021/12/13 08:20:25;;;;;;;;;29.20;28.80;;;;;;;;5176703;28;8807;-69
2021/12/13 08:22:57;;;;;;;;;12.20;11.60;;;;;;;;5178594;28;8913;-69
2021/12/13 08:25:31;;;;;;;;;18.50;16.50;;;;;;;;5228640;28;8783;-69
2021/12/13 08:28:04;;;;;;;;;40.50;40.25;;;;;;;;5228935;28;8940;-69
2021/12/13 08:30:55;;;;;;;;;43.25;41.00;;;;;;;;5178228;28;8925;-69
2021/12/13 08:33:36;;;;;;;;;29.00;26.00;;;;;;;;5178675;28;8781;-69
2021/12/13 08:36:12;;;;;;;;;27.20;26.80;;;;;;;;5211292;28;8794;-69
2021/12/13 08:39:01;;;;;;;;;33.00;30.75;;;;;;;;5228794;28;9534;-68
2021/12/13 08:41:38;;;;;;;;;24.50;24.50;;;;;;;;5211414;28;8846;-68
2021/12/13 08:44:12;;;;;;;;;96.00;72.33;;;;;;;;5210534;28;8826;-67
2021/12/13 08:51:06;;;;;;;;;23.00;18.00;;;;;;;;5228381;28;8747;-67
2021/12/13 08:53:38;;;;;;;;;31.67;30.33;;;;;;;;5194026;28;8791;-69
2021/12/13 08:56:11;;;;;;;;;24.25;21.50;;;;;;;;5177998;28;8791;-68
2021/12/13 08:59:09;;;;;;;;;28.80;27.40;;;;;;;;5212842;28;9615;-69
2021/12/13 09:01:43;;;;;;;;;26.25;26.25;;;;;;;;5227559;28;8953;-73
2021/12/13 09:04:40;;;;;;;;;42.75;37.25;;;;;;;;5210274;28;8813;-67
2021/12/13 09:11:43;;;;;;;;;32.00;31.50;;;;;;;;5227943;28;8734;-67
2021/12/13 09:14:17;;;;;;;;;25.40;20.40;;;;;;;;5177830;28;9538;-68
2021/12/13 09:25:39;;;;;;;;;40.25;37.25;;;;;;;;5226933;28;8735;-66
2021/12/13 09:28:12;;;;;;;;;58.25;50.50;;;;;;;;5177000;28;8802;-67
2021/12/13 09:30:46;;;;;;;;;53.50;48.00;;;;;;;;5176400;28;8794;-71
2021/12/13 09:33:28;;;;;;;;;31.00;30.25;;;;;;;;5193026;28;8787;-71
2021/12/13 09:36:17;;;;;;;;;39.50;38.00;;;;;;;;5176983;28;8794;-70
2021/12/13 09:38:55;;;;;;;;;45.50;40.75;;;;;;;;5177058;28;8811;-70
2021/12/13 09:41:29;;;;;;;;;30.00;30.00;;;;;;;;5192956;28;9514;-71
2021/12/13 09:44:06;;;;;;;;;32.00;26.50;;;;;;;;5192720;28;9498;-69
2021/12/13 09:46:52;;;;;;;;;22.50;22.50;;;;;;;;5193348;28;8798;-71
2021/12/13 09:49:29;;;;;;;;;26.00;24.50;;;;;;;;5191914;28;8775;-73
2021/12/13 09:52:00;;;;;;;;;32.50;31.75;;;;;;;;5192787;28;8791;-74
2021/12/13 09:54:37;;;;;;;;;33.00;33.00;;;;;;;;5208814;28;8794;-70
2021/12/13 09:57:12;;;;;;;;;31.50;28.00;;;;;;;;5209249;28;8846;-72
2021/12/13 09:59:46;;;;;;;;;71.75;55.50;;;;;;;;5177029;28;8825;-71
2021/12/13 10:02:20;;;;;;;;;52.25;45.50;;;;;;;;5191793;28;9588;-72
2021/12/13 10:04:52;;;;;;;;;35.50;33.75;;;;;;;;5192470;28;8791;-71
2021/12/13 10:07:26;;;;;;;;;34.25;31.25;;;;;;;;5176660;28;8810;-69
2021/12/13 10:10:03;;;;;;;;;51.25;46.75;;;;;;;;5226229;28;8787;-72
2021/12/13 10:12:43;;;;;;;;;54.75;45.00;;;;;;;;5192229;28;8800;-69
2021/12/13 10:15:36;;;;;;;;;53.75;48.50;;;;;;;;5215177;28;9519;-70
2021/12/13 10:18:12;;;;;;;;;49.50;41.75;;;;;;;;5196160;28;8793;-70
2021/12/13 10:20:45;;;;;;;;;54.50;48.75;;;;;;;;5195888;28;9532;-69
2021/12/13 10:23:18;;;;;;;;;46.50;38.75;;;;;;;;5212220;28;8768;-71
2021/12/13 10:25:51;;;;;;;;;67.50;53.25;;;;;;;;5229973;28;8815;-71
2021/12/13 10:28:28;;;;;;;;;50.75;45.25;;;;;;;;5247387;28;8819;-71
2021/12/13 10:31:08;;;;;;;;;42.50;39.75;;;;;;;;5212031;28;8828;-70
2021/12/13 10:33:39;;;;;;;;;25.50;23.00;;;;;;;;5213102;28;8808;-72
2021/12/13 10:36:11;;;;;;;;;26.25;24.25;;;;;;;;5194943;28;8865;-69
2021/12/13 10:38:47;;;;;;;;;23.50;20.50;;;;;;;;5211694;28;8784;-69
2021/12/13 10:41:41;;;;;;;;;12.50;12.50;;;;;;;;5214856;28;8843;-70
2021/12/13 10:44:31;;;;;;;;;24.75;24.75;;;;;;;;5246838;28;8792;-69
2021/12/13 10:47:09;;;;;;;;;17.60;15.80;;;;;;;;5196054;28;8772;-69
2021/12/13 10:49:59;;;;;;;;;28.75;28.75;;;;;;;;5231471;28;9474;-69
2021/12/13 10:52:33;;;;;;;;;30.50;29.75;;;;;;;;5211718;28;8785;-69
2021/12/13 10:55:16;;;;;;;;;28.75;27.75;;;;;;;;5195198;28;8780;-68
2021/12/13 10:57:49;;;;;;;;;36.00;34.25;;;;;;;;5195735;28;8777;-68
2021/12/13 11:04:49;;;;;;;;;29.25;28.00;;;;;;;;5246413;28;8756;-70
2021/12/13 11:07:21;;;;;;;;;30.75;30.50;;;;;;;;5195183;28;8830;-70
2021/12/13 11:14:17;;;;;;;;;20.25;18.50;;;;;;;;5246711;28;8882;-69
2021/12/13 11:21:17;;;;;;;;;17.60;17.60;;;;;;;;5247026;28;8828;-70
2021/12/13 11:23:48;;;;;;;;;27.25;27.00;;;;;;;;5201202;28;8789;-70
2021/12/13 11:26:23;;;;;;;;;22.75;21.25;;;;;;;;5240864;28;8836;-68
2021/12/13 11:28:54;;;;;;;;;24.00;24.00;;;;;;;;5240541;28;9527;-70
2021/12/13 11:31:31;;;;;;;;;23.20;21.40;;;;;;;;5211071;28;8784;-69
2021/12/13 11:38:45;;;;;;;;;15.60;15.60;;;;;;;;5255756;28;8720;-69
2021/12/13 11:41:29;;;;;;;;;26.60;25.00;;;;;;;;5209185;28;8840;-69
2021/12/13 11:48:35;;;;;;;;;21.50;21.25;;;;;;;;5251875;28;8792;-70
2021/12/13 11:51:16;;;;;;;;;27.25;26.50;;;;;;;;5234828;28;8789;-69
2021/12/13 11:54:05;;;;;;;;;22.75;21.50;;;;;;;;5203404;28;9476;-70
2021/12/13 11:56:42;;;;;;;;;25.20;21.00;;;;;;;;5256006;28;8934;-70
2021/12/13 11:59:25;;;;;;;;;24.50;22.00;;;;;;;;5220152;28;8768;-71
2021/12/13 12:01:57;;;;;;;;;27.75;27.00;;;;;;;;5217399;28;8820;-70
2021/12/13 12:04:46;;;;;;;;;32.00;27.50;;;;;;;;5232981;28;8834;-70
2021/12/13 12:07:35;;;;;;;;;34.00;30.00;;;;;;;;5232456;28;9548;-69
2021/12/13 12:10:20;;;;;;;;;57.67;50.67;;;;;;;;5231602;28;8776;-69
2021/12/13 12:13:27;;;;;;;;;33.00;31.00;;;;;;;;5218292;28;8822;-70
2021/12/13 12:16:01;;;;;;;;;31.25;29.00;;;;;;;;5199197;28;8768;-69
2021/12/13 12:18:36;;;;;;;;;23.20;23.00;;;;;;;;5215177;28;8784;-69
2021/12/13 12:21:26;;;;;;;;;26.20;24.60;;;;;;;;5198358;28;8855;-70
2021/12/13 12:24:04;;;;;;;;;17.80;17.60;;;;;;;;5231362;28;9542;-70
2021/12/13 12:26:36;;;;;;;;;49.75;45.50;;;;;;;;5231334;28;8808;-68
2021/12/13 12:29:09;;;;;;;;;77.50;58.00;;;;;;;;5212435;28;8856;-69
2021/12/13 12:31:42;;;;;;;;;30.00;27.00;;;;;;;;5233147;28;8816;-69
2021/12/13 12:34:43;;;;;;;;;29.75;28.00;;;;;;;;5232163;28;8772;-69
2021/12/13 12:37:40;;;;;;;;;30.50;30.50;;;;;;;;5231897;28;8784;-68
2021/12/13 12:40:33;;;;;;;;;29.00;27.50;;;;;;;;5196551;28;8808;-70
2021/12/13 12:43:15;;;;;;;;;32.50;31.25;;;;;;;;5168604;28;8824;-68
2021/12/13 12:45:49;;;;;;;;;15.40;15.00;;;;;;;;5230764;28;8788;-69
2021/12/13 12:48:43;;;;;;;;;45.25;40.75;;;;;;;;5230796;28;8880;-69
2021/12/13 12:51:19;;;;;;;;;36.75;34.75;;;;;;;;5248583;28;8796;-69
2021/12/13 12:58:19;;;;;;;;;33.50;33.00;;;;;;;;5247998;28;8757;-69
2021/12/13 13:00:51;;;;;;;;;65.00;57.25;;;;;;;;5231094;28;8914;-68
2021/12/13 13:03:26;;;;;;;;;47.75;42.75;;;;;;;;5197438;28;8776;-68
2021/12/13 13:06:20;;;;;;;;;66.75;55.25;;;;;;;;5229221;28;8796;-68
2021/12/13 13:08:53;;;;;;;;;78.33;63.67;;;;;;;;5183979;28;8798;-69
2021/12/13 13:11:30;;;;;;;;;33.25;33.25;;;;;;;;5227383;28;8963;-68
2021/12/13 13:14:30;;;;;;;;;59.00;51.75;;;;;;;;5195930;28;8822;-69
2021/12/13 13:17:04;;;;;;;;;79.67;59.33;;;;;;;;5176540;28;9478;-70
2021/12/13 13:20:00;;;;;;;;;93.67;67.00;;;;;;;;5196106;28;10009;-70
2021/12/13 13:22:33;;;;;;;;;74.33;63.33;;;;;;;;5210733;28;9305;-70
2021/12/13 13:29:34;;;;;;;;;37.00;34.00;;;;;;;;5227859;28;8755;-70
2021/12/13 13:32:09;;;;;;;;;44.25;37.50;;;;;;;;5210516;28;8934;-70
2021/12/13 13:34:42;;;;;;;;;31.50;31.25;;;;;;;;5227819;28;8826;-72
2021/12/13 13:37:13;;;;;;;;;33.25;33.25;;;;;;;;5193816;28;9482;-70
2021/12/13 13:39:48;;;;;;;;;63.67;52.00;;;;;;;;5175916;28;8823;-70
2021/12/13 13:42:21;;;;;;;;;76.33;58.67;;;;;;;;5187824;28;11631;-69
2021/12/13 13:44:54;;;;;;;;;86.00;66.67;;;;;;;;5177141;28;8875;-70
2021/12/13 13:51:50;;;;;;;;;44.25;44.00;;;;;;;;5227878;28;8963;-70
2021/12/13 13:54:21;;;;;;;;;24.00;23.00;;;;;;;;5208981;28;9633;-70
2021/12/13 13:56:51;;;;;;;;;24.50;24.50;;;;;;;;5209001;28;8807;-70
2021/12/13 14:04:07;;;;;;;;;36.20;35.00;;;;;;;;5247071;28;8898;-69
2021/12/13 14:06:40;;;;;;;;;69.75;55.50;;;;;;;;5197318;28;8811;-70
2021/12/13 14:09:19;;;;;;;;;111.00;82.50;;;;;;;;5229630;28;8923;-70
2021/12/13 14:11:54;;;;;;;;;115.25;90.50;;;;;;;;5213269;28;10147;-70
2021/12/13 14:14:38;;;;;;;;;73.67;61.00;;;;;;;;5212936;28;10203;-70
2021/12/13 14:17:09;;;;;;;;;52.50;45.00;;;;;;;;5233425;28;8949;-69
2021/12/13 14:24:09;;;;;;;;;36.80;35.60;;;;;;;;5247182;28;8863;-70
2021/12/13 14:26:40;;;;;;;;;28.60;27.00;;;;;;;;5196482;28;8808;-70
2021/12/13 14:29:29;;;;;;;;;28.80;28.40;;;;;;;;5229866;28;9522;-70
2021/12/13 14:32:00;;;;;;;;;24.75;24.75;;;;;;;;5213294;28;8811;-69
2021/12/13 14:34:31;;;;;;;;;26.00;25.50;;;;;;;;5197063;28;8807;-69
2021/12/13 14:37:02;;;;;;;;;28.00;28.00;;;;;;;;5199472;28;8808;-69
2021/12/13 14:39:33;;;;;;;;;35.00;34.20;;;;;;;;5196433;28;8903;-70
2021/12/13 14:42:15;;;;;;;;;38.50;34.50;;;;;;;;5195621;28;8967;-71
2021/12/13 14:44:51;;;;;;;;;50.25;47.50;;;;;;;;5196149;28;8835;-70
2021/12/13 14:47:24;;;;;;;;;36.40;36.20;;;;;;;;5196625;28;8764;-71
2021/12/13 14:49:56;;;;;;;;;59.50;52.25;;;;;;;;5212962;28;8768;-70
2021/12/13 14:52:32;;;;;;;;;34.00;33.40;;;;;;;;5228876;28;8785;-66
2021/12/13 14:55:06;;;;;;;;;29.40;29.40;;;;;;;;5212808;28;9455;-66
2021/12/13 14:57:57;;;;;;;;;38.00;35.20;;;;;;;;5231768;28;8757;-66
2021/12/13 15:00:36;;;;;;;;;50.00;42.50;;;;;;;;5228613;28;8788;-65
2021/12/13 15:03:10;;;;;;;;;67.50;57.25;;;;;;;;5247260;28;8819;-65
2021/12/13 15:05:44;;;;;;;;;53.00;43.75;;;;;;;;5195975;28;8802;-65
2021/12/13 15:08:17;;;;;;;;;45.25;41.50;;;;;;;;5212270;28;8873;-65
2021/12/13 15:10:57;;;;;;;;;32.00;27.75;;;;;;;;5212037;28;8784;-65
2021/12/13 15:13:30;;;;;;;;;37.25;34.50;;;;;;;;5195767;28;8834;-66
2021/12/13 15:16:04;;;;;;;;;43.00;40.00;;;;;;;;5228723;28;8803;-65
2021/12/13 15:19:21;;;;;;;;;29.20;28.00;;;;;;;;5231172;28;8853;-66
2021/12/13 15:21:53;;;;;;;;;27.20;26.20;;;;;;;;5244472;28;8820;-65
2021/12/13 15:37:01;;;;;;;;;24.80;23.20;;;;;;;;5244911;28;8772;-67
2021/12/13 15:43:57;;;;;;;;;43.60;40.60;;;;;;;;5245692;28;8788;-67
2021/12/13 15:46:30;;;;;;;;;28.00;24.40;;;;;;;;5210875;28;8899;-67
2021/12/13 15:49:28;;;;;;;;;19.40;18.00;;;;;;;;5227827;28;8808;-65
2021/12/13 15:52:02;;;;;;;;;25.20;24.20;;;;;;;;5212369;28;8873;-65
2021/12/13 15:54:35;;;;;;;;;24.40;21.60;;;;;;;;5211587;28;8784;-66
2021/12/13 16:01:32;;;;;;;;;151.00;126.75;;;;;;;;5245594;28;8808;-65
2021/12/13 16:04:10;;;;;;;;;49.75;43.75;;;;;;;;5227962;28;11602;-65
2021/12/13 16:06:46;;;;;;;;;21.00;21.00;;;;;;;;5211401;28;8780;-65
2021/12/13 16:09:22;;;;;;;;;30.20;27.60;;;;;;;;5245909;28;8818;-65
2021/12/13 16:16:24;;;;;;;;;28.40;28.40;;;;;;;;5245411;28;8729;-65
2021/12/13 16:18:56;;;;;;;;;33.00;32.60;;;;;;;;5212167;28;8784;-65
2021/12/13 16:21:30;;;;;;;;;33.60;32.80;;;;;;;;5211371;28;8925;-64
2021/12/13 16:24:05;;;;;;;;;32.60;32.60;;;;;;;;5227050;28;8819;-65
2021/12/13 16:26:38;;;;;;;;;34.80;33.80;;;;;;;;5210012;28;8781;-66
2021/12/13 16:29:10;;;;;;;;;36.60;35.60;;;;;;;;5245389;28;8830;-65
2021/12/13 16:31:42;;;;;;;;;43.00;42.50;;;;;;;;5194285;28;8869;-65
2021/12/13 16:38:36;;;;;;;;;109.25;81.25;;;;;;;;5245469;28;8713;-65
2021/12/13 16:41:09;;;;;;;;;29.20;27.20;;;;;;;;5229203;28;8910;-64
2021/12/13 16:43:43;;;;;;;;;9.20;9.20;;;;;;;;5214817;28;8812;-65
2021/12/13 16:46:15;;;;;;;;;16.80;16.00;;;;;;;;5214202;28;8805;-65
2021/12/13 16:53:21;;;;;;;;;17.40;16.20;;;;;;;;5248401;28;8854;-65
2021/12/13 16:55:52;;;;;;;;;23.60;21.60;;;;;;;;5198172;28;8792;-66
2021/12/13 16:58:24;;;;;;;;;14.25;14.25;;;;;;;;5248230;28;8822;-65
2021/12/13 17:00:56;;;;;;;;;22.80;22.40;;;;;;;;5231355;28;9614;-65
2021/12/13 17:03:28;;;;;;;;;14.50;13.50;;;;;;;;5230936;28;8886;-65
2021/12/13 17:06:05;;;;;;;;;22.20;21.60;;;;;;;;5248644;28;9474;-65
2021/12/13 17:08:41;;;;;;;;;17.20;16.00;;;;;;;;5230456;28;8788;-66
2021/12/13 17:16:00;;;;;;;;;19.40;19.00;;;;;;;;5228076;28;8723;-65
2021/12/13 17:18:36;;;;;;;;;27.00;23.20;;;;;;;;5227939;28;8791;-65
2021/12/13 17:21:33;;;;;;;;;28.00;27.20;;;;;;;;5226723;28;8996;-64
2021/12/13 17:24:05;;;;;;;;;36.20;28.00;;;;;;;;5176927;28;8802;-63
2021/12/13 17:31:40;;;;;;;;;15.40;9.60;;;;;;;;5207765;28;8811;-64
2021/12/13 17:34:26;;;;;;;;;20.60;20.60;;;;;;;;5192827;28;8859;-65
2021/12/13 17:37:06;;;;;;;;;19.40;17.20;;;;;;;;5192954;28;8782;-65
2021/12/13 17:39:39;;;;;;;;;16.80;16.80;;;;;;;;5209508;28;8790;-64
2021/12/13 17:42:13;;;;;;;;;15.20;14.40;;;;;;;;5176955;28;8846;-65
2021/12/13 17:44:45;;;;;;;;;16.00;16.00;;;;;;;;5192369;28;8795;-64
2021/12/13 17:47:25;;;;;;;;;18.40;18.40;;;;;;;;5226696;28;9451;-65
2021/12/13 17:49:56;;;;;;;;;20.20;20.20;;;;;;;;5219662;28;8785;-64
2021/12/13 17:52:43;;;;;;;;;21.50;20.25;;;;;;;;5229280;28;8881;-64
2021/12/13 17:59:37;;;;;;;;;45.60;40.40;;;;;;;;5226594;28;8767;-65
2021/12/13 18:02:27;;;;;;;;;31.60;31.60;;;;;;;;5228974;28;8811;-63
2021/12/13 18:05:07;;;;;;;;;20.00;15.60;;;;;;;;5192668;28;8807;-65
2021/12/13 18:07:42;;;;;;;;;21.80;21.20;;;;;;;;5209399;28;9554;-64
2021/12/13 18:10:25;;;;;;;;;16.20;16.20;;;;;;;;5227652;28;8794;-64
2021/12/13 18:12:57;;;;;;;;;14.60;13.00;;;;;;;;5227143;28;8844;-64
2021/12/13 18:15:31;;;;;;;;;11.60;11.60;;;;;;;;5207387;28;8795;-64
2021/12/13 18:18:02;;;;;;;;;15.80;14.20;;;;;;;;5176086;28;9621;-64
2021/12/13 18:20:39;;;;;;;;;15.00;15.00;;;;;;;;5209070;28;8811;-65